createdAt,value
2022-08-31T00:02:06.077Z,46.09
2022-08-31T00:11:40.003Z,46.46
2022-08-31T00:12:44.176Z,46.43
2022-08-31T00:22:16.328Z,46.71
2022-08-31T00:31:50.705Z,46.98
2022-08-31T00:41:24.783Z,47.38
2022-08-31T00:50:58.902Z,47.64
2022-08-31T01:00:34.808Z,47.94
2022-08-31T01:10:07.838Z,48.24
2022-08-31T01:19:41.945Z,48.52
2022-08-31T01:29:17.296Z,48.68
2022-08-31T01:38:51.061Z,48.93
2022-08-31T01:48:24.117Z,49.24
2022-08-31T01:57:58.551Z,49.49
2022-08-31T02:07:32.414Z,49.68
2022-08-31T02:17:06.300Z,49.89
2022-08-31T02:26:40.404Z,50.29
2022-08-31T02:36:14.708Z,50.67
2022-08-31T02:45:50.938Z,50.96
2022-08-31T02:55:23.607Z,51.21
2022-08-31T03:04:58.059Z,51.29
2022-08-31T03:14:33.692Z,51.90
2022-08-31T03:24:06.035Z,52.14
2022-08-31T03:33:41.373Z,52.58
2022-08-31T03:43:14.140Z,52.61
2022-08-31T03:52:48.693Z,53.05
2022-08-31T04:02:24.802Z,52.78
2022-08-31T04:11:59.079Z,52.84
2022-08-31T04:21:31.037Z,53.24
2022-08-31T04:31:05.224Z,53.59
2022-08-31T04:40:40.427Z,54.09
2022-08-31T04:50:13.056Z,54.87
2022-08-31T04:59:48.645Z,55.75
2022-08-31T05:09:22.519Z,55.73
2022-08-31T05:18:54.835Z,56.05
2022-08-31T05:28:29.170Z,56.62
2022-08-31T05:38:03.693Z,57.37
2022-08-31T05:47:38.036Z,58.12
2022-08-31T05:57:12.254Z,59.09
2022-08-31T06:06:46.762Z,63.45
2022-08-31T06:16:22.528Z,66.79
2022-08-31T06:25:56.363Z,69.40
2022-08-31T06:35:28.290Z,70.52
2022-08-31T06:45:01.758Z,73.08
2022-08-31T06:54:37.306Z,75.63
2022-08-31T07:04:09.445Z,78.41
2022-08-31T07:13:45.199Z,79.68
2022-08-31T07:23:17.836Z,80.82
2022-08-31T07:32:52.112Z,81.73
2022-08-31T07:42:26.427Z,83.61
2022-08-31T07:43:28.862Z,84.09
2022-08-31T07:53:04.412Z,84.28
2022-08-31T07:54:06.720Z,84.52
2022-08-31T07:55:09.187Z,84.10
2022-08-31T07:56:11.685Z,83.71
2022-08-31T07:57:14.167Z,83.71
2022-08-31T08:06:47.008Z,84.11
2022-08-31T08:07:53.824Z,84.51
2022-08-31T08:09:06.736Z,84.36
2022-08-31T08:09:56.183Z,84.38
2022-08-31T08:10:59.567Z,83.85
2022-08-31T08:12:03.486Z,83.26
2022-08-31T08:13:06.805Z,81.55
2022-08-31T08:14:09.193Z,81.35
2022-08-31T08:15:13.273Z,81.51
2022-08-31T08:16:17.211Z,81.01
2022-08-31T08:17:19.522Z,80.90
2022-08-31T08:18:23.559Z,80.79
2022-08-31T08:19:27.403Z,80.53
2022-08-31T08:20:34.625Z,80.52
2022-08-31T08:21:32.212Z,80.51
2022-08-31T08:22:51.248Z,80.43
2022-08-31T08:23:40.579Z,80.85
2022-08-31T08:24:43.000Z,80.45
2022-08-31T08:25:45.469Z,80.41
2022-08-31T08:26:53.552Z,80.71
2022-08-31T08:27:53.579Z,80.89
2022-08-31T08:28:55.798Z,80.37
2022-08-31T08:29:58.307Z,80.47
2022-08-31T08:39:29.170Z,83.30
2022-08-31T08:40:32.701Z,83.76
2022-08-31T08:41:36.642Z,83.48
2022-08-31T08:42:40.588Z,83.21
2022-08-31T08:43:43.723Z,82.23
2022-08-31T08:44:47.111Z,82.54
2022-08-31T08:45:49.524Z,82.65
2022-08-31T08:46:51.911Z,83.08
2022-08-31T08:47:54.307Z,83.20
2022-08-31T08:48:56.813Z,82.65
2022-08-31T08:49:59.363Z,82.80
2022-08-31T08:51:03.473Z,83.15
2022-08-31T08:52:05.828Z,83.34
2022-08-31T08:53:08.284Z,83.20
2022-08-31T08:54:10.720Z,83.89
2022-08-31T08:55:14.740Z,84.01
2022-08-31T08:56:32.120Z,83.76
2022-08-31T08:57:19.693Z,83.41
2022-08-31T08:58:22.182Z,83.49
2022-08-31T08:59:26.219Z,83.06
2022-08-31T09:00:28.589Z,82.89
2022-08-31T09:01:31.060Z,83.03
2022-08-31T09:02:35.180Z,83.24
2022-08-31T09:03:39.033Z,82.13
2022-08-31T09:13:10.038Z,84.27
2022-08-31T09:14:12.389Z,84.77
2022-08-31T09:15:14.833Z,84.50
2022-08-31T09:16:17.413Z,84.86
2022-08-31T09:17:21.434Z,84.41
2022-08-31T09:18:25.348Z,84.36
2022-08-31T09:27:56.773Z,84.17
2022-08-31T09:28:59.407Z,83.80
2022-08-31T09:30:02.011Z,84.28
2022-08-31T09:31:06.161Z,84.30
2022-08-31T09:32:10.121Z,83.11
2022-08-31T09:33:12.522Z,83.22
2022-08-31T09:34:15.052Z,83.33
2022-08-31T09:35:17.632Z,83.29
2022-08-31T09:36:20.277Z,83.54
2022-08-31T09:37:24.480Z,82.69
2022-08-31T09:38:26.826Z,83.03
2022-08-31T09:39:32.913Z,81.72
2022-08-31T09:40:33.557Z,81.24
2022-08-31T09:41:36.089Z,81.98
2022-08-31T09:42:40.265Z,82.93
2022-08-31T09:43:42.633Z,83.29
2022-08-31T09:44:46.627Z,80.03
2022-08-31T09:45:50.591Z,80.45
2022-08-31T09:46:52.871Z,80.76
2022-08-31T09:47:56.909Z,82.00
2022-08-31T09:48:59.302Z,82.17
2022-08-31T09:50:01.698Z,82.78
2022-08-31T09:51:04.156Z,82.79
2022-08-31T09:52:06.634Z,82.85
2022-08-31T09:53:09.091Z,82.43
2022-08-31T09:54:11.504Z,82.79
2022-08-31T09:55:13.928Z,83.10
2022-08-31T09:56:18.051Z,83.47
2022-08-31T09:57:21.935Z,83.16
2022-08-31T09:58:25.883Z,83.04
2022-08-31T09:59:28.140Z,82.71
2022-08-31T10:00:30.630Z,83.28
2022-08-31T10:01:33.140Z,83.33
2022-08-31T10:02:37.129Z,83.46
2022-08-31T10:03:41.061Z,84.01
2022-08-31T10:04:43.400Z,83.41
2022-08-31T10:05:45.833Z,83.08
2022-08-31T10:06:48.287Z,83.51
2022-08-31T10:07:52.350Z,83.63
2022-08-31T10:08:54.690Z,83.58
2022-08-31T10:09:57.692Z,83.76
2022-08-31T10:10:59.648Z,83.77
2022-08-31T10:12:02.119Z,83.71
2022-08-31T10:13:04.600Z,83.85
2022-08-31T10:14:07.109Z,84.21
2022-08-31T10:15:14.864Z,84.01
2022-08-31T10:16:15.143Z,83.78
2022-08-31T10:17:19.006Z,83.97
2022-08-31T10:18:21.593Z,84.04
2022-08-31T10:19:25.601Z,84.14
2022-08-31T10:20:30.416Z,83.87
2022-08-31T10:21:30.289Z,83.86
2022-08-31T10:22:34.319Z,83.97
2022-08-31T10:23:36.721Z,83.94
2022-08-31T10:24:39.163Z,83.59
2022-08-31T10:25:41.614Z,83.12
2022-08-31T10:26:44.055Z,83.61
2022-08-31T10:27:46.508Z,83.41
2022-08-31T10:28:48.926Z,83.77
2022-08-31T10:29:51.418Z,83.40
2022-08-31T10:30:53.849Z,84.05
2022-08-31T10:31:57.931Z,84.07
2022-08-31T10:33:00.330Z,83.62
2022-08-31T10:34:02.810Z,83.44
2022-08-31T10:35:05.271Z,83.65
2022-08-31T10:36:07.749Z,83.82
2022-08-31T10:37:10.184Z,84.11
2022-08-31T10:38:18.074Z,83.58
2022-08-31T10:39:18.162Z,84.07
2022-08-31T10:40:22.192Z,83.94
2022-08-31T10:41:24.456Z,83.97
2022-08-31T10:42:26.947Z,83.60
2022-08-31T10:43:31.597Z,83.72
2022-08-31T10:44:33.450Z,83.85
2022-08-31T10:45:35.818Z,83.75
2022-08-31T10:46:40.087Z,83.68
2022-08-31T10:47:44.003Z,83.58
2022-08-31T10:48:47.878Z,83.22
2022-08-31T10:49:51.963Z,83.08
2022-08-31T10:50:54.285Z,83.21
2022-08-31T10:51:56.729Z,83.33
2022-08-31T10:53:12.443Z,83.65
2022-08-31T10:54:03.127Z,83.41
2022-08-31T10:55:07.197Z,83.22
2022-08-31T10:56:11.125Z,83.14
2022-08-31T10:57:19.462Z,83.31
2022-08-31T10:58:17.437Z,82.47
2022-08-31T10:59:19.852Z,82.57
2022-08-31T11:00:22.371Z,83.37
2022-08-31T11:01:26.579Z,83.33
2022-08-31T11:02:28.809Z,83.30
2022-08-31T11:03:31.267Z,83.33
2022-08-31T11:04:33.803Z,83.68
2022-08-31T11:05:36.186Z,83.86
2022-08-31T11:06:38.583Z,84.24
2022-08-31T11:07:41.022Z,83.78
2022-08-31T11:08:45.126Z,83.92
2022-08-31T11:09:47.497Z,83.53
2022-08-31T11:10:51.544Z,83.66
2022-08-31T11:11:53.898Z,83.90
2022-08-31T11:12:57.973Z,83.89
2022-08-31T11:14:00.497Z,83.92
2022-08-31T11:15:04.451Z,83.50
2022-08-31T11:16:06.905Z,83.76
2022-08-31T11:17:09.923Z,83.44
2022-08-31T11:18:11.757Z,83.27
2022-08-31T11:19:14.183Z,82.94
2022-08-31T11:20:18.326Z,83.24
2022-08-31T11:21:22.254Z,82.93
2022-08-31T11:22:24.535Z,83.16
2022-08-31T11:23:28.635Z,83.07
2022-08-31T11:24:34.969Z,82.77
2022-08-31T11:25:33.454Z,83.09
2022-08-31T11:26:35.930Z,82.75
2022-08-31T11:27:38.401Z,82.33
2022-08-31T11:28:42.404Z,82.16
2022-08-31T11:29:46.546Z,81.71
2022-08-31T11:30:51.266Z,81.79
2022-08-31T11:31:52.966Z,80.56
2022-08-31T11:32:55.583Z,81.57
2022-08-31T11:34:15.405Z,81.36
2022-08-31T11:35:01.984Z,79.71
2022-08-31T11:36:07.146Z,80.61
2022-08-31T11:37:08.366Z,81.64
2022-08-31T11:38:10.780Z,79.45
2022-08-31T11:39:13.288Z,80.80
2022-08-31T11:40:17.323Z,81.85
2022-08-31T11:41:19.546Z,81.82
2022-08-31T11:42:23.684Z,82.08
2022-08-31T11:43:26.058Z,82.00
2022-08-31T11:44:28.464Z,81.41
2022-08-31T11:45:32.545Z,81.24
2022-08-31T11:46:36.551Z,79.29
2022-08-31T11:47:39.733Z,77.18
2022-08-31T11:48:42.163Z,77.96
2022-08-31T11:49:44.589Z,79.11
2022-08-31T11:50:48.039Z,79.35
2022-08-31T11:51:51.982Z,78.91
2022-08-31T11:52:54.311Z,78.21
2022-08-31T11:53:58.475Z,79.41
2022-08-31T11:55:00.852Z,80.10
2022-08-31T11:56:03.236Z,79.64
2022-08-31T11:57:05.700Z,77.39
2022-08-31T11:58:08.097Z,77.08
2022-08-31T11:59:10.560Z,77.33
2022-08-31T12:00:14.029Z,78.60
2022-08-31T12:01:16.439Z,79.60
2022-08-31T12:02:18.939Z,79.38
2022-08-31T12:03:22.957Z,79.51
2022-08-31T12:04:25.314Z,79.59
2022-08-31T12:05:27.801Z,79.43
2022-08-31T12:06:30.211Z,79.64
2022-08-31T12:16:01.938Z,75.25
2022-08-31T12:17:04.321Z,76.89
2022-08-31T12:18:07.797Z,77.93
2022-08-31T12:19:10.209Z,78.14
2022-08-31T12:20:12.655Z,77.08
2022-08-31T12:21:16.698Z,76.93
2022-08-31T12:22:19.013Z,76.61
2022-08-31T12:23:30.548Z,78.34
2022-08-31T12:24:26.875Z,77.12
2022-08-31T12:25:29.237Z,76.63
2022-08-31T12:26:31.710Z,74.36
2022-08-31T12:27:36.803Z,75.09
2022-08-31T12:28:40.654Z,74.65
2022-08-31T12:29:42.986Z,71.87
2022-08-31T12:30:45.584Z,73.30
2022-08-31T12:31:47.945Z,73.64
2022-08-31T12:32:50.409Z,73.10
2022-08-31T12:33:52.864Z,73.28
2022-08-31T12:34:55.383Z,75.73
2022-08-31T12:35:59.482Z,76.66
2022-08-31T12:37:01.827Z,76.11
2022-08-31T12:38:04.369Z,76.67
2022-08-31T12:39:08.381Z,75.87
2022-08-31T12:40:10.847Z,76.46
2022-08-31T12:41:13.241Z,75.64
2022-08-31T12:42:15.710Z,77.05
2022-08-31T12:43:18.474Z,77.73
2022-08-31T12:44:20.651Z,77.21
2022-08-31T12:45:23.129Z,77.87
2022-08-31T12:46:25.726Z,77.96
2022-08-31T12:47:29.731Z,77.32
2022-08-31T12:48:33.702Z,77.63
2022-08-31T12:49:37.659Z,75.86
2022-08-31T12:50:39.953Z,74.66
2022-08-31T12:51:42.427Z,75.26
2022-08-31T12:52:44.875Z,76.02
2022-08-31T12:53:47.380Z,76.90
2022-08-31T12:54:49.872Z,75.70
2022-08-31T12:55:52.354Z,73.81
2022-08-31T12:56:54.797Z,74.16
2022-08-31T12:57:57.270Z,74.00
2022-08-31T12:58:59.732Z,74.59
2022-08-31T13:00:02.387Z,75.00
2022-08-31T13:01:08.603Z,75.46
2022-08-31T13:02:08.758Z,75.37
2022-08-31T13:03:12.613Z,74.50
2022-08-31T13:04:14.899Z,74.78
2022-08-31T13:05:19.004Z,75.64
2022-08-31T13:06:21.433Z,73.10
2022-08-31T13:07:23.885Z,72.82
2022-08-31T13:08:26.335Z,73.58
2022-08-31T13:09:28.794Z,73.06
2022-08-31T13:10:31.309Z,71.22
2022-08-31T13:11:40.378Z,73.30
2022-08-31T13:12:37.627Z,74.20
2022-08-31T13:13:40.182Z,73.39
2022-08-31T13:14:44.224Z,72.67
2022-08-31T13:15:48.232Z,71.46
2022-08-31T13:16:50.627Z,71.59
2022-08-31T13:17:54.594Z,72.04
2022-08-31T13:18:58.606Z,73.71
2022-08-31T13:20:00.893Z,71.65
2022-08-31T13:21:05.047Z,73.51
2022-08-31T13:22:07.302Z,73.13
2022-08-31T13:23:09.792Z,73.02
2022-08-31T13:24:13.821Z,67.92
2022-08-31T13:25:16.170Z,71.40
2022-08-31T13:26:18.678Z,73.29
2022-08-31T13:27:21.096Z,72.87
2022-08-31T13:28:25.227Z,72.14
2022-08-31T13:29:29.169Z,68.92
2022-08-31T13:30:31.590Z,70.52
2022-08-31T13:31:34.032Z,69.67
2022-08-31T13:32:38.102Z,68.79
2022-08-31T13:33:42.079Z,67.02
2022-08-31T13:34:46.065Z,66.19
2022-08-31T13:35:48.377Z,63.58
2022-08-31T13:36:51.773Z,66.87
2022-08-31T13:37:54.943Z,63.96
2022-08-31T13:38:58.954Z,66.75
2022-08-31T13:40:03.029Z,63.92
2022-08-31T13:41:06.826Z,65.85
2022-08-31T13:42:09.116Z,65.00
2022-08-31T13:43:11.631Z,64.21
2022-08-31T13:44:14.043Z,62.62
2022-08-31T13:45:16.551Z,65.27
2022-08-31T13:46:20.676Z,65.20
2022-08-31T13:47:24.548Z,65.82
2022-08-31T13:48:26.954Z,66.15
2022-08-31T13:49:29.364Z,65.17
2022-08-31T13:50:31.844Z,65.78
2022-08-31T13:51:34.497Z,66.45
2022-08-31T13:52:37.150Z,65.16
2022-08-31T13:53:41.375Z,65.98
2022-08-31T13:54:43.514Z,65.21
2022-08-31T13:55:45.944Z,65.90
2022-08-31T13:56:48.462Z,65.34
2022-08-31T13:57:50.998Z,65.77
2022-08-31T13:58:55.044Z,65.84
2022-08-31T13:59:59.029Z,66.54
2022-08-31T14:01:01.504Z,66.31
2022-08-31T14:02:03.961Z,63.96
2022-08-31T14:03:08.065Z,61.57
2022-08-31T14:04:10.424Z,60.41
2022-08-31T14:05:14.418Z,61.26
2022-08-31T14:06:18.414Z,64.55
2022-08-31T14:07:20.742Z,60.60
2022-08-31T14:08:24.839Z,63.40
2022-08-31T14:09:27.190Z,62.64
2022-08-31T14:10:29.751Z,62.82
2022-08-31T14:11:32.160Z,62.18
2022-08-31T14:12:34.678Z,62.08
2022-08-31T14:13:38.778Z,61.64
2022-08-31T14:14:41.087Z,61.54
2022-08-31T14:15:43.588Z,62.96
2022-08-31T14:16:49.611Z,61.41
2022-08-31T14:18:52.625Z,60.72
2022-08-31T14:19:56.537Z,60.66
2022-08-31T14:21:19.304Z,61.09
2022-08-31T14:22:01.464Z,60.13
2022-08-31T14:23:04.052Z,59.65
2022-08-31T14:24:06.551Z,60.23
2022-08-31T14:25:10.610Z,59.40
2022-08-31T14:26:14.523Z,53.44
2022-08-31T14:27:16.894Z,56.27
2022-08-31T14:28:21.063Z,55.94
2022-08-31T14:29:25.059Z,54.94
2022-08-31T14:30:27.691Z,54.53
2022-08-31T14:31:30.104Z,56.36
2022-08-31T14:32:32.607Z,50.87
2022-08-31T14:33:35.014Z,51.43
2022-08-31T14:34:37.540Z,54.44
2022-08-31T14:35:40.001Z,55.56
2022-08-31T14:36:42.499Z,50.54
2022-08-31T14:37:46.548Z,52.69
2022-08-31T14:38:49.112Z,52.72
2022-08-31T14:39:53.169Z,52.31
2022-08-31T14:40:57.160Z,53.52
2022-08-31T14:41:59.599Z,51.29
2022-08-31T14:43:03.659Z,48.97
2022-08-31T14:44:07.633Z,53.03
2022-08-31T14:45:09.994Z,52.22
2022-08-31T14:46:12.569Z,50.49
2022-08-31T14:47:15.020Z,51.18
2022-08-31T14:48:17.650Z,47.90
2022-08-31T14:49:19.988Z,49.70
2022-08-31T14:50:22.475Z,51.68
2022-08-31T14:51:24.970Z,50.99
2022-08-31T14:52:27.528Z,48.37
2022-08-31T14:53:30.076Z,49.03
2022-08-31T14:54:32.577Z,50.17
2022-08-31T14:55:36.707Z,47.68
2022-08-31T14:56:40.710Z,44.17
2022-08-31T14:57:43.075Z,45.56
2022-08-31T14:58:45.668Z,47.90
2022-08-31T14:59:48.131Z,47.36
2022-08-31T15:00:53.836Z,48.72
2022-08-31T15:01:54.646Z,47.34
2022-08-31T15:02:57.096Z,49.52
2022-08-31T15:03:59.573Z,49.63
2022-08-31T15:05:02.098Z,46.00
2022-08-31T15:06:06.203Z,47.51
2022-08-31T15:07:10.312Z,46.83
2022-08-31T15:08:12.641Z,46.79
2022-08-31T15:09:14.996Z,47.01
2022-08-31T15:10:17.524Z,48.90
2022-08-31T15:11:20.014Z,48.17
2022-08-31T15:12:22.580Z,48.68
2022-08-31T15:13:25.032Z,48.87
2022-08-31T15:14:29.074Z,48.38
2022-08-31T15:15:31.528Z,50.02
2022-08-31T15:16:35.672Z,48.64
2022-08-31T15:17:39.682Z,48.29
2022-08-31T15:18:43.502Z,44.17
2022-08-31T15:19:47.392Z,45.38
2022-08-31T15:20:49.813Z,47.04
2022-08-31T15:21:58.748Z,42.36
2022-08-31T15:22:54.786Z,47.49
2022-08-31T15:23:58.962Z,43.90
2022-08-31T15:25:01.326Z,46.47
2022-08-31T15:26:05.395Z,48.85
2022-08-31T15:27:09.497Z,47.12
2022-08-31T15:28:12.029Z,48.98
2022-08-31T15:29:14.329Z,46.24
2022-08-31T15:30:16.866Z,48.72
2022-08-31T15:31:19.362Z,48.05
2022-08-31T15:32:23.416Z,44.48
2022-08-31T15:33:27.327Z,48.56
2022-08-31T15:34:29.719Z,44.31
2022-08-31T15:35:32.168Z,42.55
2022-08-31T15:36:34.623Z,44.33
2022-08-31T15:37:38.722Z,43.22
2022-08-31T15:38:42.663Z,44.29
2022-08-31T15:39:45.056Z,43.68
2022-08-31T15:40:47.572Z,46.48
2022-08-31T15:41:50.284Z,45.60
2022-08-31T15:42:52.565Z,43.91
2022-08-31T15:43:55.020Z,45.87
2022-08-31T15:44:59.259Z,42.74
2022-08-31T15:46:03.240Z,43.14
2022-08-31T15:47:07.209Z,43.20
2022-08-31T15:48:11.311Z,42.79
2022-08-31T15:49:13.614Z,43.64
2022-08-31T15:50:16.144Z,41.19
2022-08-31T15:51:18.609Z,43.07
2022-08-31T15:52:21.154Z,41.76
2022-08-31T15:53:25.315Z,46.30
2022-08-31T15:54:29.293Z,44.29
2022-08-31T15:55:31.754Z,43.58
2022-08-31T15:56:34.237Z,42.23
2022-08-31T15:57:36.741Z,43.28
2022-08-31T15:58:39.266Z,42.43
2022-08-31T15:59:43.393Z,43.21
2022-08-31T16:00:45.856Z,42.84
2022-08-31T16:01:48.447Z,43.02
2022-08-31T16:02:50.995Z,43.42
2022-08-31T16:03:53.472Z,43.42
2022-08-31T16:04:55.995Z,45.33
2022-08-31T16:05:58.426Z,45.11
2022-08-31T16:07:02.473Z,47.00
2022-08-31T16:08:04.943Z,41.55
2022-08-31T16:09:07.447Z,43.15
2022-08-31T16:10:12.637Z,40.63
2022-08-31T16:11:13.898Z,40.86
2022-08-31T16:12:18.023Z,41.35
2022-08-31T16:13:20.375Z,40.51
2022-08-31T16:14:22.836Z,39.79
2022-08-31T16:15:26.262Z,42.32
2022-08-31T16:16:27.983Z,40.15
2022-08-31T16:17:30.339Z,40.11
2022-08-31T16:18:32.869Z,41.17
2022-08-31T16:19:36.023Z,42.51
2022-08-31T16:20:37.906Z,39.22
2022-08-31T16:21:40.390Z,39.60
2022-08-31T16:22:42.904Z,38.87
2022-08-31T16:23:45.520Z,40.06
2022-08-31T16:24:49.634Z,40.33
2022-08-31T16:25:52.021Z,38.36
2022-08-31T16:26:54.570Z,37.51
2022-08-31T16:27:57.119Z,39.10
2022-08-31T16:28:59.547Z,41.98
2022-08-31T16:30:02.027Z,43.20
2022-08-31T16:31:06.133Z,42.37
2022-08-31T16:32:08.568Z,41.34
2022-08-31T16:33:11.089Z,41.76
2022-08-31T16:34:15.113Z,38.39
2022-08-31T16:35:17.583Z,37.31
2022-08-31T16:36:20.132Z,37.43
2022-08-31T16:37:22.578Z,40.44
2022-08-31T16:38:25.100Z,40.70
2022-08-31T16:39:29.086Z,38.00
2022-08-31T16:40:31.487Z,37.97
2022-08-31T16:41:33.924Z,39.33
2022-08-31T16:42:36.438Z,37.76
2022-08-31T16:43:38.936Z,36.94
2022-08-31T16:44:41.501Z,40.51
2022-08-31T16:45:44.121Z,40.49
2022-08-31T16:46:46.582Z,39.02
2022-08-31T16:47:48.962Z,38.58
2022-08-31T16:48:51.471Z,37.19
2022-08-31T16:49:53.887Z,37.63
2022-08-31T16:50:58.024Z,38.48
2022-08-31T16:52:02.020Z,38.37
2022-08-31T16:53:04.349Z,36.15
2022-08-31T16:54:06.913Z,37.27
2022-08-31T16:55:10.987Z,37.27
2022-08-31T16:56:14.898Z,37.58
2022-08-31T16:57:19.061Z,38.77
2022-08-31T16:58:40.897Z,40.83
2022-08-31T16:59:25.526Z,40.43
2022-08-31T17:00:31.487Z,39.75
2022-08-31T17:01:31.971Z,40.86
2022-08-31T17:02:36.096Z,42.15
2022-08-31T17:03:38.502Z,39.27
2022-08-31T17:04:51.912Z,40.31
2022-08-31T17:05:45.008Z,39.30
2022-08-31T17:06:47.376Z,39.58
2022-08-31T17:07:49.819Z,42.91
2022-08-31T17:08:52.297Z,39.97
2022-08-31T17:09:54.789Z,40.57
2022-08-31T17:10:57.221Z,41.32
2022-08-31T17:12:01.364Z,40.07
2022-08-31T17:13:03.767Z,40.33
2022-08-31T17:14:06.285Z,41.97
2022-08-31T17:15:08.764Z,42.24
2022-08-31T17:16:12.888Z,44.42
2022-08-31T17:17:16.852Z,42.62
2022-08-31T17:18:19.384Z,45.40
2022-08-31T17:19:23.307Z,43.21
2022-08-31T17:20:25.519Z,42.17
2022-08-31T17:21:27.986Z,41.12
2022-08-31T17:22:33.140Z,42.95
2022-08-31T17:23:33.310Z,40.78
2022-08-31T17:24:35.756Z,40.32
2022-08-31T17:25:39.757Z,40.87
2022-08-31T17:26:43.659Z,40.70
2022-08-31T17:27:46.063Z,40.85
2022-08-31T17:28:50.169Z,41.71
2022-08-31T17:29:52.633Z,41.34
2022-08-31T17:30:56.521Z,42.55
2022-08-31T17:31:58.885Z,43.02
2022-08-31T17:33:01.250Z,43.31
2022-08-31T17:34:05.349Z,44.41
2022-08-31T17:35:07.799Z,45.78
2022-08-31T17:36:10.131Z,44.49
2022-08-31T17:37:12.601Z,44.66
2022-08-31T17:38:15.073Z,45.05
2022-08-31T17:39:17.488Z,45.13
2022-08-31T17:40:19.943Z,45.33
2022-08-31T17:41:22.370Z,45.59
2022-08-31T17:42:24.837Z,45.65
2022-08-31T17:43:28.936Z,46.03
2022-08-31T17:44:31.255Z,46.23
2022-08-31T17:45:33.783Z,46.56
2022-08-31T17:46:36.232Z,47.06
2022-08-31T17:47:38.730Z,47.52
2022-08-31T17:48:41.163Z,47.21
2022-08-31T17:49:46.686Z,48.59
2022-08-31T17:50:47.612Z,48.58
2022-08-31T17:51:50.050Z,48.60
2022-08-31T17:52:52.631Z,48.49
2022-08-31T17:53:54.913Z,48.29
2022-08-31T17:54:57.478Z,48.72
2022-08-31T18:04:28.051Z,50.34
2022-08-31T18:05:30.544Z,50.30
2022-08-31T18:06:34.604Z,50.66
2022-08-31T18:07:38.547Z,50.65
2022-08-31T18:17:09.299Z,52.37
2022-08-31T18:18:13.315Z,52.13
2022-08-31T18:27:44.379Z,53.27
2022-08-31T18:37:19.704Z,53.73
2022-08-31T18:38:22.147Z,53.76
2022-08-31T18:57:30.429Z,55.64
2022-08-31T19:07:02.850Z,56.70
2022-08-31T19:16:36.009Z,57.94
2022-08-31T19:26:10.181Z,58.64
2022-08-31T19:35:43.964Z,59.84
2022-08-31T19:45:24.316Z,60.65
2022-08-31T19:54:51.031Z,61.03
2022-08-31T20:04:23.632Z,60.90
2022-08-31T20:13:57.766Z,60.58
2022-08-31T20:23:31.348Z,61.12
2022-08-31T20:33:04.276Z,61.02
2022-08-31T20:42:39.615Z,61.08
2022-08-31T20:52:11.399Z,61.92
2022-08-31T21:01:44.526Z,62.22
2022-08-31T21:11:18.829Z,62.60
2022-08-31T21:20:52.953Z,61.56
2022-08-31T21:30:29.650Z,61.69
2022-08-31T21:40:02.260Z,61.57
2022-08-31T21:49:38.145Z,61.73
2022-08-31T21:59:11.941Z,62.52
2022-08-31T22:08:44.174Z,62.97
2022-08-31T22:18:58.647Z,63.17
2022-08-31T22:27:53.046Z,63.71
2022-08-31T22:37:27.044Z,64.17
2022-08-31T22:46:59.196Z,64.66
2022-08-31T22:48:01.643Z,64.55
2022-08-31T22:57:34.682Z,64.45
2022-08-31T23:07:08.697Z,64.41
2022-08-31T23:08:11.220Z,64.35
2022-08-31T23:17:44.610Z,63.76
2022-08-31T23:27:20.336Z,64.06
2022-08-31T23:36:52.430Z,64.85
2022-08-31T23:46:27.507Z,65.46
2022-08-31T23:55:59.707Z,65.81
